Nail, Arkansas
Current Conditions -  °F | °C
As of 3:30 PM on Saturday 22 Nov 2014 (Local Time) from KHRO Reporting Station
Moderate Rain Moderate Rain  
Wind Chill: 51°   Ceiling: 5500
Heat Index: 51°   Visibility: 3mi
Dew Point: 51°   Wind: 12mph
Humidity: 100%   Direction: 160°SSE
Pressure: 29.98"   Gusts: NA
Location:  35.8413°N, 93.3507°W
Report Text: KHRO 222130Z AUTO 16010KT 3SM RA BR FEW007 BKN055 OVC070 11/11 A2998 RMK AO2 P0006 T01060106
Loading
Personal Weather Stations






























Interactive Weather Map New forecast layout! Learn more

10-Day Weather Forecast

Advertisements
Track Severe Weather on mobile